createdAt,value
2018-08-25T00:02:01.334Z,1.20
2018-08-25T00:04:29.450Z,1.43
2018-08-25T00:06:57.650Z,1.07
2018-08-25T00:09:25.745Z,1.40
2018-08-25T00:11:53.890Z,1.40
2018-08-25T00:14:21.993Z,1.30
2018-08-25T00:16:50.111Z,1.43
2018-08-25T00:19:18.232Z,1.00
2018-08-25T00:21:46.357Z,1.10
2018-08-25T00:24:14.506Z,1.07
2018-08-25T00:26:42.641Z,1.57
2018-08-25T00:29:10.756Z,2.27
2018-08-25T00:31:38.870Z,1.87
2018-08-25T00:34:06.993Z,1.50
2018-08-25T00:36:35.104Z,1.50
2018-08-25T00:39:03.671Z,2.27
2018-08-25T00:41:32.362Z,1.30
2018-08-25T00:44:00.499Z,1.57
2018-08-25T00:46:28.631Z,1.20
2018-08-25T00:48:56.815Z,1.13
2018-08-25T00:51:25.018Z,1.23
2018-08-25T00:53:53.134Z,1.83
2018-08-25T00:56:21.247Z,1.00
2018-08-25T00:58:49.380Z,1.10
2018-08-25T01:01:17.492Z,1.13
2018-08-25T01:03:45.615Z,0.87
2018-08-25T01:06:13.758Z,0.80
2018-08-25T01:08:41.875Z,1.37
2018-08-25T01:11:09.977Z,1.00
2018-08-25T01:13:38.099Z,1.40
2018-08-25T01:16:06.210Z,0.80
2018-08-25T01:18:34.337Z,1.00
2018-08-25T01:21:02.428Z,1.27
2018-08-25T01:23:30.633Z,1.00
2018-08-25T01:25:58.778Z,1.00
2018-08-25T01:28:26.899Z,1.30
2018-08-25T01:30:55.019Z,1.23
2018-08-25T01:33:23.143Z,1.10
2018-08-25T01:35:51.245Z,1.30
2018-08-25T01:38:19.372Z,1.17
2018-08-25T01:40:47.518Z,1.30
2018-08-25T01:43:15.618Z,1.23
2018-08-25T01:45:43.723Z,1.43
2018-08-25T01:48:11.850Z,1.23
2018-08-25T01:50:40.127Z,1.30
2018-08-25T01:53:08.222Z,1.20
2018-08-25T01:55:37.367Z,1.47
2018-08-25T01:58:06.247Z,1.40
2018-08-25T02:00:34.371Z,1.50
2018-08-25T02:03:02.503Z,1.30
2018-08-25T02:05:31.499Z,1.47
2018-08-25T02:08:01.519Z,1.20
2018-08-25T02:10:29.682Z,1.40
2018-08-25T02:12:58.091Z,1.80
2018-08-25T02:15:26.349Z,1.27
2018-08-25T02:17:54.538Z,1.87
2018-08-25T02:20:22.825Z,1.30
2018-08-25T02:22:51.083Z,1.70
2018-08-25T02:25:19.194Z,1.77
2018-08-25T02:27:47.307Z,1.60
2018-08-25T02:30:15.476Z,1.00
2018-08-25T02:32:43.558Z,0.83
2018-08-25T02:35:11.767Z,1.20
2018-08-25T02:37:39.891Z,1.30
2018-08-25T02:40:08.015Z,1.00
2018-08-25T02:42:36.120Z,1.50
2018-08-25T02:45:04.643Z,1.10
2018-08-25T02:47:33.290Z,0.97
2018-08-25T02:50:01.442Z,0.80
2018-08-25T02:52:29.577Z,1.10
2018-08-25T02:54:57.692Z,1.30
2018-08-25T02:57:25.794Z,1.30
2018-08-25T02:59:53.911Z,1.43
2018-08-25T03:02:22.023Z,1.17
2018-08-25T03:04:50.162Z,1.60
2018-08-25T03:07:18.266Z,1.53
2018-08-25T03:09:46.382Z,1.87
2018-08-25T03:12:14.478Z,1.90
2018-08-25T03:14:42.591Z,1.70
2018-08-25T03:17:10.750Z,1.70
2018-08-25T03:19:38.859Z,1.50
2018-08-25T03:22:06.954Z,1.50
2018-08-25T03:24:35.079Z,2.00
2018-08-25T03:27:03.191Z,1.70
2018-08-25T03:29:31.303Z,1.63
2018-08-25T03:31:59.410Z,1.80
2018-08-25T03:34:27.518Z,1.80
2018-08-25T03:36:55.658Z,2.07
2018-08-25T03:39:23.766Z,2.10
2018-08-25T03:41:51.869Z,2.23
2018-08-25T03:44:19.992Z,1.77
2018-08-25T03:46:48.080Z,2.33
2018-08-25T03:49:16.193Z,1.97
2018-08-25T03:51:44.301Z,2.50
2018-08-25T03:54:12.436Z,2.47
2018-08-25T03:56:40.533Z,2.50
2018-08-25T03:59:08.634Z,2.73
2018-08-25T04:01:36.778Z,2.40
2018-08-25T04:04:04.854Z,2.40
2018-08-25T04:06:32.974Z,2.60
2018-08-25T04:09:01.155Z,2.57
2018-08-25T04:11:29.267Z,2.70
2018-08-25T04:13:57.365Z,2.70
2018-08-25T04:16:25.475Z,2.60
2018-08-25T04:18:53.581Z,2.60
2018-08-25T04:21:21.771Z,2.00
2018-08-25T04:23:49.877Z,2.50
2018-08-25T04:26:17.994Z,3.07
2018-08-25T04:28:46.113Z,2.90
2018-08-25T04:31:14.249Z,3.30
2018-08-25T04:33:42.342Z,3.07
2018-08-25T04:36:10.538Z,3.20
2018-08-25T04:38:38.643Z,3.10
2018-08-25T04:41:06.778Z,2.80
2018-08-25T04:43:34.854Z,2.57
2018-08-25T04:46:02.999Z,2.20
2018-08-25T04:48:31.097Z,2.70
2018-08-25T04:50:59.247Z,2.63
2018-08-25T04:53:27.381Z,3.70
2018-08-25T04:55:55.549Z,3.37
2018-08-25T04:58:23.842Z,3.27
2018-08-25T05:00:51.949Z,3.10
2018-08-25T05:03:20.068Z,3.33
2018-08-25T05:05:48.187Z,3.60
2018-08-25T05:08:16.290Z,3.43
2018-08-25T05:10:44.402Z,3.07
2018-08-25T05:13:12.511Z,3.30
2018-08-25T05:15:40.614Z,2.50
2018-08-25T05:18:08.763Z,2.37
2018-08-25T05:20:36.929Z,2.20
2018-08-25T05:23:05.042Z,2.30
2018-08-25T05:25:33.150Z,2.30
2018-08-25T05:28:01.254Z,2.00
2018-08-25T05:30:29.381Z,2.03
2018-08-25T05:32:57.477Z,3.03
2018-08-25T05:35:25.636Z,2.70
2018-08-25T05:37:53.729Z,3.00
2018-08-25T05:40:21.844Z,3.43
2018-08-25T05:42:49.938Z,2.93
2018-08-25T05:45:18.045Z,3.93
2018-08-25T05:47:46.261Z,3.10
2018-08-25T05:50:14.378Z,4.00
2018-08-25T05:52:42.495Z,4.00
2018-08-25T05:55:10.602Z,3.63
2018-08-25T05:57:38.732Z,4.77
2018-08-25T06:00:06.945Z,5.00
2018-08-25T06:02:35.063Z,3.77
2018-08-25T06:05:03.170Z,4.87
2018-08-25T06:07:31.275Z,4.63
2018-08-25T06:09:59.386Z,4.17
2018-08-25T06:12:27.517Z,4.27
2018-08-25T06:14:55.614Z,3.90
2018-08-25T06:17:23.750Z,4.33
2018-08-25T06:19:51.915Z,3.57
2018-08-25T06:22:20.015Z,3.77
2018-08-25T06:24:48.130Z,3.50
2018-08-25T06:27:16.252Z,3.97
2018-08-25T06:29:44.384Z,4.00
2018-08-25T06:32:12.458Z,4.20
2018-08-25T06:34:40.558Z,3.73
2018-08-25T06:37:08.679Z,4.20
2018-08-25T06:39:36.782Z,4.43
2018-08-25T06:42:04.909Z,4.33
2018-08-25T06:44:33.018Z,4.20
2018-08-25T06:47:01.153Z,3.77
2018-08-25T06:49:29.266Z,4.50
2018-08-25T06:51:57.392Z,4.27
2018-08-25T06:54:25.499Z,4.03
2018-08-25T06:56:53.605Z,5.13
2018-08-25T06:59:21.768Z,3.33
2018-08-25T07:01:49.831Z,4.50
2018-08-25T07:04:17.986Z,4.10
2018-08-25T07:06:46.066Z,4.40
2018-08-25T07:09:14.165Z,4.10
2018-08-25T07:11:42.782Z,3.40
2018-08-25T07:14:11.461Z,3.90
2018-08-25T07:16:39.955Z,3.50
2018-08-25T07:19:08.147Z,3.57
2018-08-25T07:21:36.335Z,3.23
2018-08-25T07:24:04.439Z,4.07
2018-08-25T07:26:32.533Z,4.17
2018-08-25T07:29:00.663Z,4.30
2018-08-25T07:31:28.775Z,4.33
2018-08-25T07:33:56.957Z,3.83
2018-08-25T07:36:25.053Z,4.33
2018-08-25T07:38:53.179Z,4.80
2018-08-25T07:41:21.278Z,3.73
2018-08-25T07:43:49.382Z,4.30
2018-08-25T07:46:17.502Z,4.50
2018-08-25T07:48:45.691Z,5.20
2018-08-25T07:51:13.803Z,5.30
2018-08-25T07:53:41.975Z,5.30
2018-08-25T07:56:10.026Z,4.07
2018-08-25T07:58:38.170Z,5.37
2018-08-25T08:01:06.265Z,5.33
2018-08-25T08:03:34.369Z,4.83
2018-08-25T08:06:02.526Z,4.50
2018-08-25T08:08:30.650Z,4.53
2018-08-25T08:10:58.785Z,4.83
2018-08-25T08:13:26.899Z,4.57
2018-08-25T08:15:55.038Z,5.10
2018-08-25T08:18:23.172Z,5.40
2018-08-25T08:20:51.274Z,5.40
2018-08-25T08:23:19.427Z,5.00
2018-08-25T08:25:47.525Z,5.40
2018-08-25T08:28:15.637Z,4.60
2018-08-25T08:30:43.743Z,6.00
2018-08-25T08:33:12.130Z,5.50
2018-08-25T08:35:40.323Z,5.20
2018-08-25T08:38:08.434Z,4.67
2018-08-25T08:40:36.568Z,4.47
2018-08-25T08:43:04.684Z,4.23
2018-08-25T08:45:32.824Z,4.67
2018-08-25T08:48:00.906Z,4.77
2018-08-25T08:50:29.121Z,4.87
2018-08-25T08:52:57.138Z,4.83
2018-08-25T08:55:25.254Z,4.80
2018-08-25T08:57:53.367Z,4.67
2018-08-25T09:00:21.479Z,4.07
2018-08-25T09:02:49.595Z,4.67
2018-08-25T09:05:17.702Z,4.40
2018-08-25T09:07:45.812Z,4.43
2018-08-25T09:10:13.922Z,4.90
2018-08-25T09:12:42.022Z,3.97
2018-08-25T09:15:10.159Z,4.13
2018-08-25T09:17:38.358Z,4.03
2018-08-25T09:20:06.505Z,4.00
2018-08-25T09:22:34.633Z,3.20
2018-08-25T09:25:02.763Z,3.23
2018-08-25T09:27:30.903Z,3.30
2018-08-25T09:29:58.974Z,3.07
2018-08-25T09:32:27.090Z,2.63
2018-08-25T09:34:55.210Z,2.40
2018-08-25T09:37:23.314Z,2.10
2018-08-25T09:39:51.432Z,1.87
2018-08-25T09:42:19.554Z,1.70
2018-08-25T09:44:47.666Z,1.77
2018-08-25T09:47:15.772Z,2.13
2018-08-25T09:49:43.886Z,1.53
2018-08-25T09:52:12.067Z,1.50
2018-08-25T09:54:40.178Z,1.40
2018-08-25T09:57:08.328Z,1.33
2018-08-25T09:59:36.430Z,1.33
2018-08-25T10:02:07.020Z,1.10
2018-08-25T10:04:35.129Z,1.00
2018-08-25T10:07:03.250Z,0.83
2018-08-25T10:09:31.407Z,0.87
2018-08-25T10:11:59.563Z,0.80
2018-08-25T10:14:27.672Z,0.83
2018-08-25T10:16:55.802Z,1.03
2018-08-25T10:19:23.971Z,0.80
2018-08-25T10:21:52.250Z,0.90
2018-08-25T10:24:20.550Z,1.00
2018-08-25T10:26:48.702Z,0.93
2018-08-25T10:29:16.820Z,0.73
2018-08-25T10:31:44.945Z,1.00
2018-08-25T10:34:13.114Z,0.73
2018-08-25T10:36:42.213Z,0.70
2018-08-25T10:39:11.861Z,0.70
2018-08-25T10:41:40.189Z,0.83
2018-08-25T10:44:08.834Z,0.90
2018-08-25T10:46:37.713Z,0.77
2018-08-25T10:49:06.111Z,1.00
2018-08-25T10:51:34.214Z,1.03
2018-08-25T10:54:02.371Z,1.00
2018-08-25T10:56:30.463Z,0.63
2018-08-25T10:58:58.566Z,1.03
2018-08-25T11:01:26.783Z,0.80
2018-08-25T11:03:54.902Z,0.70
2018-08-25T11:06:23.026Z,1.07
2018-08-25T11:08:51.149Z,0.80
2018-08-25T11:11:19.245Z,1.07
2018-08-25T11:13:47.345Z,1.20
2018-08-25T11:16:15.463Z,1.40
2018-08-25T11:18:43.573Z,1.40
2018-08-25T11:21:11.674Z,1.30
2018-08-25T11:23:39.809Z,1.10
2018-08-25T11:26:07.922Z,1.20
2018-08-25T11:28:36.035Z,1.27
2018-08-25T11:31:04.138Z,1.03
2018-08-25T11:33:32.283Z,1.30
2018-08-25T11:36:00.509Z,1.50
2018-08-25T11:38:28.602Z,1.33
2018-08-25T11:40:56.714Z,1.53
2018-08-25T11:43:24.842Z,1.50
2018-08-25T11:45:52.954Z,1.23
2018-08-25T11:48:21.054Z,1.40
2018-08-25T11:50:49.175Z,0.93
2018-08-25T11:53:17.369Z,1.70
2018-08-25T11:55:45.487Z,1.90
2018-08-25T11:58:13.585Z,2.03
2018-08-25T12:00:41.697Z,1.70
2018-08-25T12:03:09.801Z,1.53
2018-08-25T12:05:37.914Z,1.80
2018-08-25T12:08:06.058Z,1.50
2018-08-25T12:10:34.175Z,2.03
2018-08-25T12:13:02.298Z,1.80
2018-08-25T12:15:30.405Z,2.13
2018-08-25T12:17:58.515Z,2.20
2018-08-25T12:20:26.631Z,1.80
2018-08-25T12:22:54.747Z,1.70
2018-08-25T12:25:23.183Z,2.63
2018-08-25T12:27:51.320Z,2.50
2018-08-25T12:30:19.449Z,2.23
2018-08-25T12:32:47.559Z,2.73
2018-08-25T12:35:15.679Z,2.23
2018-08-25T12:37:43.831Z,2.40
2018-08-25T12:40:12.107Z,3.23
2018-08-25T12:42:40.198Z,3.00
2018-08-25T12:45:08.386Z,3.00
2018-08-25T12:47:36.435Z,3.12
2018-08-25T12:50:04.553Z,3.20
2018-08-25T12:52:32.666Z,2.43
2018-08-25T12:55:00.771Z,2.20
2018-08-25T12:57:28.880Z,3.07
2018-08-25T12:59:56.989Z,2.53
2018-08-25T13:02:25.128Z,2.50
2018-08-25T13:04:53.270Z,2.17
2018-08-25T13:07:21.411Z,2.07
2018-08-25T13:09:49.487Z,1.90
2018-08-25T13:12:17.597Z,1.93
2018-08-25T13:14:45.774Z,1.40
2018-08-25T13:17:13.815Z,1.33
2018-08-25T13:19:41.918Z,1.30
2018-08-25T13:22:10.664Z,1.47
2018-08-25T13:24:44.711Z,1.30
2018-08-25T13:27:12.921Z,0.97
2018-08-25T13:29:40.983Z,0.97
2018-08-25T13:32:09.082Z,0.60
2018-08-25T13:34:37.185Z,0.83
2018-08-25T13:37:05.298Z,0.90
2018-08-25T13:39:33.404Z,0.90
2018-08-25T13:42:01.514Z,1.07
2018-08-25T13:44:29.623Z,0.90
2018-08-25T13:46:57.739Z,1.10
2018-08-25T13:49:25.838Z,1.17
2018-08-25T13:51:53.967Z,1.20
2018-08-25T13:54:22.077Z,1.27
2018-08-25T13:56:50.186Z,1.77
2018-08-25T13:59:18.300Z,2.30
2018-08-25T14:01:46.525Z,1.40
2018-08-25T14:04:14.618Z,1.47
2018-08-25T14:06:42.731Z,1.17
2018-08-25T14:09:10.831Z,1.20
2018-08-25T14:11:38.945Z,0.90
2018-08-25T14:14:07.057Z,1.00
2018-08-25T14:16:35.158Z,0.90
2018-08-25T14:19:03.330Z,1.10
2018-08-25T14:21:31.522Z,1.10
2018-08-25T14:23:59.620Z,1.40
2018-08-25T14:26:27.948Z,1.20
2018-08-25T14:28:56.091Z,1.30
2018-08-25T14:31:24.151Z,1.17
2018-08-25T14:33:52.262Z,0.90
2018-08-25T14:36:20.571Z,1.30
2018-08-25T14:38:48.661Z,1.17
2018-08-25T14:41:16.778Z,1.13
2018-08-25T14:43:44.925Z,0.90
2018-08-25T14:46:13.057Z,0.87
2018-08-25T14:48:47.874Z,0.90
2018-08-25T14:51:15.982Z,1.03
2018-08-25T14:53:44.107Z,0.70
2018-08-25T14:56:12.221Z,0.80
2018-08-25T14:58:40.341Z,0.90
2018-08-25T15:01:08.475Z,0.77
2018-08-25T15:03:36.582Z,0.60
2018-08-25T15:06:04.686Z,0.70
2018-08-25T15:08:32.848Z,0.70
2018-08-25T15:11:00.947Z,0.60
2018-08-25T15:13:29.184Z,0.70
2018-08-25T15:15:57.302Z,0.70
2018-08-25T15:18:25.434Z,0.70
2018-08-25T15:20:53.538Z,0.60
2018-08-25T15:23:21.665Z,0.70
2018-08-25T15:25:49.753Z,0.70
2018-08-25T15:28:17.917Z,0.80
2018-08-25T15:30:46.007Z,0.80
2018-08-25T15:33:14.135Z,0.73
2018-08-25T15:35:42.503Z,0.90
2018-08-25T15:38:10.618Z,0.80
2018-08-25T15:40:38.805Z,1.00
2018-08-25T15:43:06.937Z,0.90
2018-08-25T15:45:35.061Z,1.00
2018-08-25T15:48:03.192Z,0.80
2018-08-25T15:50:31.307Z,0.80
2018-08-25T15:52:59.428Z,0.90
2018-08-25T15:55:27.727Z,0.97
2018-08-25T15:57:56.049Z,3.00
2018-08-25T16:00:23.967Z,1.27
2018-08-25T16:02:52.103Z,2.20
2018-08-25T16:05:20.206Z,1.00
2018-08-25T16:07:48.325Z,1.70
2018-08-25T16:10:16.471Z,1.50
2018-08-25T16:12:44.622Z,0.90
2018-08-25T16:15:12.726Z,1.10
2018-08-25T16:17:40.850Z,1.00
2018-08-25T16:20:09.105Z,1.33
2018-08-25T16:22:37.109Z,1.00
2018-08-25T16:25:05.355Z,1.00
2018-08-25T16:27:33.510Z,1.40
2018-08-25T16:30:01.645Z,1.20
2018-08-25T16:32:29.743Z,1.20
2018-08-25T16:34:57.872Z,1.37
2018-08-25T16:37:25.970Z,1.00
2018-08-25T16:39:54.127Z,0.70
2018-08-25T16:42:22.245Z,0.73
2018-08-25T16:44:50.407Z,0.67
2018-08-25T16:47:18.518Z,0.70
2018-08-25T16:49:46.643Z,0.60
2018-08-25T16:52:14.782Z,0.60
2018-08-25T16:54:43.073Z,0.70
2018-08-25T16:57:11.182Z,0.67
2018-08-25T16:59:39.470Z,25.60
2018-08-25T17:02:07.701Z,19.10
2018-08-25T17:04:35.732Z,8.90
2018-08-25T17:07:03.834Z,1.40
2018-08-25T17:09:31.978Z,2.53
2018-08-25T17:12:00.138Z,1.10
2018-08-25T17:14:28.272Z,1.10
2018-08-25T17:16:56.389Z,1.93
2018-08-25T17:19:24.504Z,0.90
2018-08-25T17:21:52.661Z,1.10
2018-08-25T17:24:20.772Z,0.80
2018-08-25T17:26:48.897Z,0.70
2018-08-25T17:29:17.007Z,0.80
2018-08-25T17:31:45.121Z,1.17
2018-08-25T17:34:13.344Z,0.87
2018-08-25T17:36:41.438Z,1.03
2018-08-25T17:39:10.694Z,0.70
2018-08-25T17:41:39.106Z,0.83
2018-08-25T17:44:07.447Z,1.07
2018-08-25T17:46:35.561Z,0.83
2018-08-25T17:49:03.682Z,1.67
2018-08-25T17:51:31.829Z,1.17
2018-08-25T17:54:00.201Z,0.90
2018-08-25T17:56:28.342Z,1.13
2018-08-25T17:58:56.494Z,1.37
2018-08-25T18:01:24.666Z,1.17
2018-08-25T18:03:52.782Z,1.10
2018-08-25T18:06:20.893Z,0.90
2018-08-25T18:08:48.990Z,1.07
2018-08-25T18:11:17.233Z,0.90
2018-08-25T18:13:45.246Z,1.17
2018-08-25T18:16:13.466Z,1.00
2018-08-25T18:18:41.571Z,1.53
2018-08-25T18:21:09.692Z,1.00
2018-08-25T18:23:37.819Z,0.60
2018-08-25T18:26:05.934Z,1.17
2018-08-25T18:28:34.040Z,1.10
2018-08-25T18:31:02.181Z,1.00
2018-08-25T18:33:30.299Z,0.80
2018-08-25T18:35:58.457Z,0.70
2018-08-25T18:38:26.587Z,0.43
2018-08-25T18:40:54.728Z,0.80
2018-08-25T18:43:22.851Z,0.80
2018-08-25T18:45:51.007Z,0.70
2018-08-25T18:48:19.196Z,0.57
2018-08-25T18:50:47.263Z,0.50
2018-08-25T18:53:15.904Z,0.70
2018-08-25T18:55:44.439Z,3.03
2018-08-25T18:58:13.433Z,3.90
2018-08-25T19:00:41.550Z,3.00
2018-08-25T19:03:09.682Z,2.90
2018-08-25T19:05:37.802Z,2.33
2018-08-25T19:08:06.042Z,1.40
2018-08-25T19:10:34.221Z,1.00
2018-08-25T19:13:02.317Z,1.23
2018-08-25T19:15:30.449Z,0.90
2018-08-25T19:17:58.591Z,0.80
2018-08-25T19:20:26.726Z,0.90
2018-08-25T19:22:54.831Z,1.00
2018-08-25T19:25:23.030Z,1.17
2018-08-25T19:27:51.205Z,1.10
2018-08-25T19:30:19.323Z,1.07
2018-08-25T19:32:47.474Z,1.20
2018-08-25T19:35:15.602Z,0.90
2018-08-25T19:37:43.725Z,1.00
2018-08-25T19:40:11.954Z,1.57
2018-08-25T19:42:40.058Z,1.10
2018-08-25T19:45:08.191Z,1.03
2018-08-25T19:47:36.289Z,1.00
2018-08-25T19:50:04.422Z,1.10
2018-08-25T19:52:32.542Z,1.80
2018-08-25T19:55:00.726Z,1.70
2018-08-25T19:57:28.834Z,1.77
2018-08-25T19:59:56.969Z,1.43
2018-08-25T20:02:25.085Z,1.67
2018-08-25T20:04:53.203Z,2.17
2018-08-25T20:07:21.323Z,3.50
2018-08-25T20:09:49.456Z,5.23
2018-08-25T20:12:17.593Z,3.00
2018-08-25T20:14:45.710Z,3.60
2018-08-25T20:17:13.826Z,4.10
2018-08-25T20:19:41.936Z,5.43
2018-08-25T20:22:10.638Z,5.73
2018-08-25T20:24:39.081Z,5.07
2018-08-25T20:27:07.194Z,4.70
2018-08-25T20:29:35.441Z,4.60
2018-08-25T20:32:03.558Z,4.57
2018-08-25T20:34:31.708Z,3.20
2018-08-25T20:36:59.983Z,1.50
2018-08-25T20:39:28.210Z,1.50
2018-08-25T20:41:56.446Z,1.70
2018-08-25T20:44:24.573Z,1.30
2018-08-25T20:46:52.690Z,0.93
2018-08-25T20:49:20.836Z,1.20
2018-08-25T20:51:48.961Z,1.67
2018-08-25T20:54:17.078Z,1.13
2018-08-25T20:56:45.194Z,1.20
2018-08-25T20:59:13.297Z,1.40
2018-08-25T21:01:41.443Z,1.70
2018-08-25T21:04:09.575Z,1.77
2018-08-25T21:06:37.747Z,7.00
2018-08-25T21:09:07.978Z,4.50
2018-08-25T21:11:36.111Z,2.50
2018-08-25T21:14:04.214Z,6.10
2018-08-25T21:16:32.365Z,4.53
2018-08-25T21:19:00.751Z,13.90
2018-08-25T21:21:28.869Z,8.00
2018-08-25T21:23:57.094Z,4.07
2018-08-25T21:26:25.242Z,14.40
2018-08-25T21:28:53.348Z,6.70
2018-08-25T21:31:21.475Z,5.27
2018-08-25T21:33:49.697Z,5.40
2018-08-25T21:36:17.811Z,4.10
2018-08-25T21:38:45.916Z,4.17
2018-08-25T21:41:14.039Z,5.27
2018-08-25T21:43:42.147Z,2.90
2018-08-25T21:46:10.256Z,5.80
2018-08-25T21:48:38.354Z,6.70
2018-08-25T21:51:06.557Z,2.67
2018-08-25T21:53:34.606Z,5.20
2018-08-25T21:56:02.754Z,4.20
2018-08-25T21:58:30.869Z,3.83
2018-08-25T22:00:58.991Z,5.20
2018-08-25T22:03:28.151Z,3.63
2018-08-25T22:05:57.040Z,3.70
2018-08-25T22:08:25.634Z,3.63
2018-08-25T22:10:54.106Z,4.30
2018-08-25T22:13:22.400Z,4.30
2018-08-25T22:15:50.514Z,5.17
2018-08-25T22:18:19.367Z,5.03
2018-08-25T22:20:47.465Z,3.50
2018-08-25T22:23:15.580Z,3.90
2018-08-25T22:25:43.703Z,4.50
2018-08-25T22:28:11.809Z,3.70
2018-08-25T22:30:39.919Z,3.80
2018-08-25T22:33:08.035Z,4.20
2018-08-25T22:35:36.134Z,3.80
2018-08-25T22:38:04.237Z,3.33
2018-08-25T22:40:32.375Z,2.80
2018-08-25T22:43:00.514Z,2.70
2018-08-25T22:45:28.689Z,2.20
2018-08-25T22:47:56.796Z,2.30
2018-08-25T22:50:24.926Z,2.30
2018-08-25T22:52:53.341Z,2.10
2018-08-25T22:55:22.749Z,2.20
2018-08-25T22:57:50.928Z,2.20
2018-08-25T23:00:19.606Z,2.27
2018-08-25T23:02:47.722Z,1.87
2018-08-25T23:05:15.831Z,1.97
2018-08-25T23:07:43.942Z,2.07
2018-08-25T23:10:12.047Z,1.50
2018-08-25T23:12:40.162Z,2.07
2018-08-25T23:15:08.266Z,1.80
2018-08-25T23:17:36.387Z,2.00
2018-08-25T23:20:04.523Z,2.20
2018-08-25T23:22:32.662Z,2.23
2018-08-25T23:25:00.763Z,2.07
2018-08-25T23:27:28.877Z,2.10
2018-08-25T23:29:56.990Z,2.20
2018-08-25T23:32:25.108Z,2.20
2018-08-25T23:34:53.214Z,2.20
2018-08-25T23:37:21.338Z,2.13
2018-08-25T23:39:49.452Z,2.77
2018-08-25T23:42:17.570Z,2.03
2018-08-25T23:44:45.674Z,1.50
2018-08-25T23:47:13.794Z,1.67
2018-08-25T23:49:41.903Z,1.80
2018-08-25T23:52:10.398Z,1.83
2018-08-25T23:54:38.501Z,1.60
2018-08-25T23:57:06.619Z,1.63
2018-08-25T23:59:34.760Z,1.90
